Minerva Roxanne — SWSZ — position and weather

sailwx.info

Track history (hours):
 
Tides and Currents Weather Stations Pressure Air Temp Water Temp Dewpoint Dewpoint Depression Visibility Wind Speed Wind Dir Waves Ship Positions

Minerva Roxanne

Last reported at 2018-Jun-22 07:30 UTC. Time now 2018-Jun-22 07:35 UTC.
Position N 41°18' E 002°12'.

Length 243 m; draft 13.4 m.

Type: Ship. MMSI: 240198000.

Date/timePositionNaut miles runAvg speedWind from/ knotsBaromVisibWave heightAir tempDewpointWater temp
2018-Jun-22 07:30N 41°18' E 002°12'0 0.1
2018-Jun-22 07:00N 41°18' E 002°12'0 0.0
2018-Jun-22 06:30N 41°18' E 002°12'0 0.1
2018-Jun-22 06:00N 41°18' E 002°12'0 0.0
2018-Jun-22 05:30N 41°18' E 002°12'0 0.1
2018-Jun-22 05:01N 41°18' E 002°12'2 4.9
2018-Jun-22 04:30N 41°16' E 002°14'611.0
2018-Jun-22 04:00N 41°12' E 002°10'612.3
2018-Jun-22 03:31N 41°06' E 002°06'612.1
2018-Jun-22 03:00N 41°00' E 002°03'612.2
2018-Jun-22 02:30N 40°55' E 001°59'612.3
2018-Jun-22 02:00N 40°50' E 001°56'612.0
2018-Jun-22 01:30N 40°44' E 001°52'912.0
2018-Jun-22 00:48N 40°37' E 001°46'412.0
2018-Jun-22 00:29N 40°33' E 001°45'1112.1
2018-Jun-21 23:32N 40°23' E 001°39'012.4
2018-Jun-21 23:30N 40°22' E 001°39'712.5
2018-Jun-21 22:57N 40°16' E 001°35'712.5
2018-Jun-21 22:24N 40°10' E 001°31'712.4
2018-Jun-21 21:48N 40°03' E 001°27'412.3
2018-Jun-21 21:30N 39°60' E 001°25'612.3
2018-Jun-21 21:00N 39°54' E 001°21'1212.5
2018-Jun-21 20:02N 39°43' E 001°14'012.5
2018-Jun-21 20:00N 39°43' E 001°14'612.4
2018-Jun-21 19:30N 39°37' E 001°11'812.2
2018-Jun-21 18:49N 39°30' E 001°06'412.1
2018-Jun-21 18:30N 39°26' E 001°04'612.1
2018-Jun-21 18:01N 39°21' E 001°01'712.1
2018-Jun-21 17:26N 39°15' E 000°57'512.1
2018-Jun-21 17:00N 39°10' E 000°54'612.2
2018-Jun-21 16:29N 39°04' E 000°50'912.2
2018-Jun-21 15:45N 38°56' E 000°45'312.4
2018-Jun-21 15:28N 38°53' E 000°43'712.4
2018-Jun-21 14:55N 38°47' E 000°39'712.3
2018-Jun-21 14:22N 38°41' E 000°36'412.2
2018-Jun-21 14:00N 38°37' E 000°33'1912.2
2018-Jun-21 12:25N 38°19' E 000°25'511.9
2018-Jun-21 11:59N 38°14' E 000°23'612.0
2018-Jun-21 11:30N 38°08' E 000°21'1612.4
2018-Jun-21 10:12N 37°53' E 000°15'1212.4
2018-Jun-21 09:12N 37°41' E 000°10'212.6
2018-Jun-21 09:00N 37°39' E 000°09'712.7
2018-Jun-21 08:27N 37°32' E 000°06'612.2
2018-Jun-21 07:57N 37°27' E 000°01'612.4
2018-Jun-21 07:29N 37°24' W 000°05'612.4
2018-Jun-21 07:00N 37°21' W 000°11'612.4
2018-Jun-21 06:30N 37°18' W 000°18'612.4
2018-Jun-21 06:00N 37°15' W 000°25'612.4
2018-Jun-21 05:30N 37°11' W 000°31'712.4
2018-Jun-21 04:58N 37°08' W 000°38'612.3
2018-Jun-21 04:30N 37°05' W 000°44'912.1
2018-Jun-21 03:47N 37°00' W 000°53'312.2
2018-Jun-21 03:31N 36°58' W 000°57'712.2
2018-Jun-21 02:57N 36°55' W 001°04'612.1
2018-Jun-21 02:25N 36°51' W 001°11'512.5
2018-Jun-21 02:00N 36°49' W 001°17'39312.1
2018-Jun-19 17:37N 36°35' W 009°27'412.5
2018-Jun-19 17:20N 36°38' W 009°30'412.3
2018-Jun-19 17:00N 36°41' W 009°33'612.4
2018-Jun-19 16:30N 36°46' W 009°37'1112.6
2018-Jun-19 15:37N 36°57' W 009°41'512.9
2018-Jun-19 15:16N 37°01' W 009°42'4112.5
2018-Jun-19 11:58N 37°41' W 009°54'712.0
2018-Jun-19 11:22N 37°48' W 009°56'511.9
2018-Jun-19 10:55N 37°54' W 009°57'512.1
2018-Jun-19 10:29N 37°59' W 009°59'612.5
2018-Jun-19 10:00N 38°05' W 010°01'612.3
2018-Jun-19 09:30N 38°11' W 010°03'712.5
2018-Jun-19 08:55N 38°18' W 010°05'612.3
2018-Jun-19 08:26N 38°24' W 010°06'612.3
2018-Jun-19 07:56N 38°29' W 010°08'612.4
2018-Jun-19 07:29N 38°35' W 010°10'613.1
2018-Jun-19 07:00N 38°41' W 010°11'612.6
2018-Jun-19 06:30N 38°47' W 010°12'612.2
2018-Jun-19 06:00N 38°53' W 010°12'611.9
2018-Jun-19 05:30N 38°59' W 010°12'612.0
2018-Jun-19 05:00N 39°05' W 010°12'612.3
2018-Jun-19 04:30N 39°12' W 010°12'712.8
2018-Jun-19 04:00N 39°18' W 010°12'612.9
2018-Jun-19 03:30N 39°24' W 010°12'612.8
2018-Jun-19 03:00N 39°31' W 010°11'612.7
2018-Jun-19 02:30N 39°37' W 010°11'612.6
2018-Jun-19 02:00N 39°43' W 010°12'612.7
2018-Jun-19 01:30N 39°50' W 010°12'612.4
2018-Jun-19 01:00N 39°56' W 010°12'612.7
2018-Jun-19 00:30N 40°02' W 010°11'612.7
2018-Jun-19 00:00N 40°09' W 010°12'712.7
2018-Jun-18 23:29N 40°15' W 010°12'54911.9
2018-Jun-17 01:30N 48°51' W 005°50'3113.0
2018-Jun-16 23:09N 49°08' W 005°11'313.1
2018-Jun-16 22:53N 49°10' W 005°07'512.7
2018-Jun-16 22:29N 49°12' W 004°60'612.3
2018-Jun-16 21:59N 49°15' W 004°52'711.5
2018-Jun-16 21:22N 49°19' W 004°42'410.9
2018-Jun-16 20:59N 49°21' W 004°37'2310.2
2018-Jun-16 18:42N 49°33' W 004°06'210.4
2018-Jun-16 18:30N 49°34' W 004°03'1110.8
2018-Jun-16 17:31N 49°39' W 003°49'111.4
2018-Jun-16 17:27N 49°40' W 003°48'511.8
2018-Jun-16 17:01N 49°42' W 003°41'712.5
2018-Jun-16 16:25N 49°46' W 003°31'613.2
2018-Jun-16 15:58N 49°49' W 003°23'614.0
2018-Jun-16 15:30N 49°53' W 003°15'814.1
2018-Jun-16 14:55N 49°57' W 003°04'614.1
2018-Jun-16 14:30N 49°59' W 002°56'713.9
2018-Jun-16 14:00N 50°01' W 002°45'713.5
2018-Jun-16 13:30N 50°03' W 002°35'47 9.8
2018-Jun-16 08:44N 50°16' W 001°25'3 8.7
2018-Jun-16 08:21N 50°16' W 001°20'5 9.9
2018-Jun-16 07:51N 50°18' W 001°12'410.9
2018-Jun-16 07:27N 50°19' W 001°06'2713.4
2018-Jun-16 05:28N 50°26' W 000°26'714.2
2018-Jun-16 04:57N 50°28' W 000°15'614.1
2018-Jun-16 04:30N 50°30' W 000°05'714.0
2018-Jun-16 04:00N 50°31' E 000°05'713.8
2018-Jun-16 03:30N 50°33' E 000°16'713.6
2018-Jun-16 03:00N 50°34' E 000°27'613.1
2018-Jun-16 02:30N 50°36' E 000°36'612.5
2018-Jun-16 02:01N 50°40' E 000°44'611.8
2018-Jun-16 01:30N 50°43' E 000°52'611.1
2018-Jun-16 01:00N 50°46' E 000°59'510.7
2018-Jun-16 00:30N 50°49' E 001°06'510.6
2018-Jun-16 00:00N 50°52' E 001°13'510.5
2018-Jun-15 23:30N 50°56' E 001°19'611.4
2018-Jun-15 23:00N 51°00' E 001°25'612.9
2018-Jun-15 22:30N 51°05' E 001°32'714.2
2018-Jun-15 22:00N 51°10' E 001°40'714.9
2018-Jun-15 21:30N 51°15' E 001°48'714.7
2018-Jun-15 21:00N 51°22' E 001°54'612.1
2018-Jun-15 20:30N 51°25' E 002°02'612.8
2018-Jun-15 20:00N 51°22' E 002°11'612.7
2018-Jun-15 19:30N 51°21' E 002°21'713.6
2018-Jun-15 19:00N 51°23' E 002°31'612.3
2018-Jun-15 18:30N 51°23' E 002°41'611.5
2018-Jun-15 18:00N 51°25' E 002°50'713.2
2018-Jun-15 17:30N 51°25' E 003°00'713.2
2018-Jun-15 17:00N 51°24' E 003°11'613.3
2018-Jun-15 16:30N 51°24' E 003°21'612.4
2018-Jun-15 16:01N 51°25' E 003°31'4 8.0
2018-Jun-15 15:31N 51°26' E 003°37'4 8.9
2018-Jun-15 15:00N 51°23' E 003°43'510.5
2018-Jun-15 14:30N 51°21' E 003°50'4 8.7
2018-Jun-15 14:00N 51°23' E 003°56'4 8.3
2018-Jun-15 13:30N 51°26' E 004°00'4 8.8
2018-Jun-15 13:00N 51°22' E 004°04'5 9.4
2018-Jun-15 12:31N 51°24' E 004°11'4 8.1
2018-Jun-15 12:00N 51°21' E 004°16'1 2.2
2018-Jun-15 11:31N 51°21' E 004°17'0 0.0
2018-Jun-15 11:00N 51°21' E 004°17'0 0.0
2018-Jun-15 10:31N 51°21' E 004°17'0 0.0
2018-Jun-15 10:00N 51°21' E 004°17'1 1.0
2018-Jun-15 09:30N 51°20' E 004°18'3 5.6
2018-Jun-15 09:00N 51°18' E 004°20'1 2.7
2018-Jun-15 08:30N 51°17' E 004°21'1 1.0
2018-Jun-15 08:01N 51°16' E 004°21'0 0.0
2018-Jun-15 07:28N 51°16' E 004°21'0 0.0
2018-Jun-15 07:01N 51°16' E 004°21'0 0.0
2018-Jun-15 06:25N 51°16' E 004°21'0 0.0
2018-Jun-15 05:58N 51°16' E 004°21'0 0.0
2018-Jun-15 05:31N 51°16' E 004°21'0 0.0
2018-Jun-15 05:01N 51°16' E 004°21'0 0.0
2018-Jun-15 04:25N 51°16' E 004°21'0 0.0
2018-Jun-15 04:01N 51°16' E 004°21'0 0.0
2018-Jun-15 03:28N 51°16' E 004°21'0 0.0
2018-Jun-15 02:58N 51°16' E 004°21'0 0.0
2018-Jun-15 02:28N 51°16' E 004°21'0 0.0
2018-Jun-15 02:01N 51°16' E 004°21'0 0.0
2018-Jun-15 01:31N 51°16' E 004°21'0 0.0
2018-Jun-15 00:58N 51°16' E 004°21'0 0.0
2018-Jun-15 00:28N 51°16' E 004°21'0 0.0
2018-Jun-14 23:58N 51°16' E 004°21'0 0.0
2018-Jun-14 23:31N 51°16' E 004°21'0 0.0
2018-Jun-14 22:55N 51°16' E 004°21'0 0.0
2018-Jun-14 22:28N 51°16' E 004°21'0 0.0
2018-Jun-14 21:58N 51°16' E 004°21'0 0.0
2018-Jun-14 21:28N 51°16' E 004°21'0 0.0
2018-Jun-14 20:58N 51°16' E 004°21'0 0.0
2018-Jun-14 20:28N 51°16' E 004°21'0 0.0
2018-Jun-14 19:58N 51°16' E 004°21'0 0.0
2018-Jun-14 19:31N 51°16' E 004°21'0 0.0
2018-Jun-14 19:01N 51°16' E 004°21'0 0.0
2018-Jun-14 18:28N 51°16' E 004°21'0 0.0
2018-Jun-14 18:01N 51°16' E 004°21'0 0.0
2018-Jun-14 17:31N 51°16' E 004°21'0 0.0
2018-Jun-14 16:58N 51°16' E 004°21'0 0.0
2018-Jun-14 16:28N 51°16' E 004°21'0 0.0
2018-Jun-14 16:01N 51°16' E 004°21'0 0.0
2018-Jun-14 15:31N 51°16' E 004°21'0 0.0
2018-Jun-14 15:01N 51°16' E 004°21'0 0.0
2018-Jun-14 14:31N 51°16' E 004°21'0 0.0
2018-Jun-14 13:58N 51°16' E 004°21'0 0.0
2018-Jun-14 13:28N 51°16' E 004°21'0 0.0
2018-Jun-14 12:58N 51°16' E 004°21'0 0.0
2018-Jun-14 12:28N 51°16' E 004°21'0 0.0
2018-Jun-14 12:01N 51°16' E 004°21'0 0.0
2018-Jun-14 11:28N 51°16' E 004°21'0 0.0
2018-Jun-14 11:01N 51°16' E 004°21'0 0.0
2018-Jun-14 10:31N 51°16' E 004°21'0 0.0
2018-Jun-14 09:58N 51°16' E 004°21'0 0.0
2018-Jun-14 09:25N 51°16' E 004°21'0 0.0
2018-Jun-14 08:58N 51°16' E 004°21'0 0.0
2018-Jun-14 08:31N 51°16' E 004°21'0 0.0
2018-Jun-14 07:58N 51°16' E 004°21'0 0.0
2018-Jun-14 07:28N 51°16' E 004°21'0 0.0
2018-Jun-14 06:58N 51°16' E 004°21'0 0.0
2018-Jun-14 06:31N 51°16' E 004°21'0 0.0
2018-Jun-14 05:58N 51°16' E 004°21'0 0.0
2018-Jun-14 05:28N 51°16' E 004°21'0 0.0
2018-Jun-14 05:01N 51°16' E 004°21'0 0.0
2018-Jun-14 04:31N 51°16' E 004°21'0 0.0
2018-Jun-14 03:58N 51°16' E 004°21'0 0.0
2018-Jun-14 03:31N 51°16' E 004°21'0 0.0
2018-Jun-14 03:01N 51°16' E 004°21'0 0.0
2018-Jun-14 02:28N 51°16' E 004°21'0 0.0
2018-Jun-14 01:58N 51°16' E 004°21'0 0.0
2018-Jun-14 01:28N 51°16' E 004°21'0 0.0
2018-Jun-14 01:01N 51°16' E 004°21'0 0.0
2018-Jun-14 00:28N 51°16' E 004°21'0 0.0
2018-Jun-13 23:58N 51°16' E 004°21'0 0.0
2018-Jun-13 23:31N 51°16' E 004°21'0 0.0
2018-Jun-13 22:58N 51°16' E 004°21'0 0.0
2018-Jun-13 22:28N 51°16' E 004°21'0 0.0
2018-Jun-13 21:58N 51°16' E 004°21'0 0.0
2018-Jun-13 21:28N 51°16' E 004°21'0 0.0
2018-Jun-13 21:01N 51°16' E 004°21'0 0.0
2018-Jun-13 20:28N 51°16' E 004°21'0 0.0
2018-Jun-13 19:58N 51°16' E 004°21'0 0.0
2018-Jun-13 19:28N 51°16' E 004°21'0 0.0
2018-Jun-13 18:58N 51°16' E 004°21'0 0.0
2018-Jun-13 18:25N 51°16' E 004°21'0 0.0
2018-Jun-13 17:58N 51°16' E 004°21'0 0.0
2018-Jun-13 17:28N 51°16' E 004°21'0 0.0
2018-Jun-13 16:58N 51°16' E 004°21'0 0.0
2018-Jun-13 16:25N 51°16' E 004°21'0 0.0
2018-Jun-13 16:01N 51°16' E 004°21'0 0.0
2018-Jun-13 15:28N 51°16' E 004°21'0 0.0
2018-Jun-13 14:58N 51°16' E 004°21'0 0.0
2018-Jun-13 14:31N 51°16' E 004°21'0 0.0
2018-Jun-13 13:58N 51°16' E 004°21'0 0.0
2018-Jun-13 13:28N 51°16' E 004°21'0 0.0
2018-Jun-13 13:01N 51°16' E 004°21'0 0.0
2018-Jun-13 12:31N 51°16' E 004°21'0 0.0
2018-Jun-13 12:01N 51°16' E 004°21'0 0.0
2018-Jun-13 11:31N 51°16' E 004°21'0 0.0
2018-Jun-13 10:58N 51°16' E 004°21'0 0.0
2018-Jun-13 10:31N 51°16' E 004°21'0 0.0
2018-Jun-13 09:58N 51°16' E 004°21'0 0.0
2018-Jun-13 09:31N 51°16' E 004°21'0 0.0
2018-Jun-13 08:58N 51°16' E 004°21'0 0.0
2018-Jun-13 08:28N 51°16' E 004°21'0 0.0
2018-Jun-13 07:58N 51°16' E 004°21'0 0.0
2018-Jun-13 07:28N 51°16' E 004°21'0 0.0
2018-Jun-13 07:01N 51°16' E 004°21'0 0.0
2018-Jun-13 06:28N 51°16' E 004°21'0 0.0
2018-Jun-13 06:01N 51°16' E 004°21'0 0.0
2018-Jun-13 05:28N 51°16' E 004°21'0 0.0
2018-Jun-13 04:58N 51°16' E 004°21'0 0.0
2018-Jun-13 04:31N 51°16' E 004°21'0 0.0
2018-Jun-13 03:58N 51°16' E 004°21'0 0.0
2018-Jun-13 03:28N 51°16' E 004°21'0 0.0
2018-Jun-13 03:01N 51°16' E 004°21'0 0.0
2018-Jun-13 02:28N 51°16' E 004°21'0 0.0
2018-Jun-13 01:58N 51°16' E 004°21'0 0.0
2018-Jun-13 01:28N 51°16' E 004°21'0 0.0
2018-Jun-13 00:58N 51°16' E 004°21'0 0.0
2018-Jun-13 00:28N 51°16' E 004°21'0 0.0
2018-Jun-12 23:55N 51°16' E 004°21'0 0.0
2018-Jun-12 23:31N 51°16' E 004°21'0 0.0
2018-Jun-12 22:58N 51°16' E 004°21'0 0.0
2018-Jun-12 22:31N 51°16' E 004°21'0 0.0
2018-Jun-12 22:01N 51°16' E 004°21'0 0.0
2018-Jun-12 21:31N 51°16' E 004°21'0 0.0
2018-Jun-12 20:58N 51°16' E 004°21'0 0.0
2018-Jun-12 20:31N 51°16' E 004°21'0 0.0
2018-Jun-12 20:01N 51°16' E 004°21'0 0.0
2018-Jun-12 19:31N 51°16' E 004°21'0 0.0
2018-Jun-12 18:58N 51°16' E 004°21'0 0.0
2018-Jun-12 18:28N 51°16' E 004°21'0 0.0
2018-Jun-12 18:01N 51°16' E 004°21'0 0.0
2018-Jun-12 17:28N 51°16' E 004°21'0 0.0
2018-Jun-12 17:01N 51°16' E 004°21'0 0.0
2018-Jun-12 16:28N 51°16' E 004°21'0 0.0
2018-Jun-12 15:58N 51°16' E 004°21'0 0.0
2018-Jun-12 15:28N 51°16' E 004°21'0 0.0
2018-Jun-12 14:58N 51°16' E 004°21'0 0.0
2018-Jun-12 14:28N 51°16' E 004°21'0 0.0
2018-Jun-12 13:58N 51°16' E 004°21'0 0.0
2018-Jun-12 13:28N 51°16' E 004°21'0 0.0
2018-Jun-12 12:55N 51°16' E 004°21'0 0.0
2018-Jun-12 12:31N 51°16' E 004°21'0 0.0
2018-Jun-12 11:58N 51°16' E 004°21'0 0.0
2018-Jun-12 11:31N 51°16' E 004°21'0 0.0
2018-Jun-12 10:58N 51°16' E 004°21'0 0.0
2018-Jun-12 10:31N 51°16' E 004°21'0 0.0
2018-Jun-12 09:58N 51°16' E 004°21'0 0.0
2018-Jun-12 09:31N 51°16' E 004°21'0 0.0
2018-Jun-12 08:58N 51°16' E 004°21'0 0.0
2018-Jun-12 08:31N 51°16' E 004°21'0 0.0
2018-Jun-12 07:58N 51°16' E 004°21'0 0.0
2018-Jun-12 07:31N 51°16' E 004°21'  
Track history (hours):
 
Tides and Currents Weather Stations Pressure Air Temp Water Temp Dewpoint Dewpoint Depression Visibility Wind Speed Wind Dir Waves Ship Positions

Minerva Roxanne

Last reported at 2018-Jun-22 07:30 UTC. Time now 2018-Jun-22 07:35 UTC.
Position N 41°18' E 002°12'.

Length 243 m; draft 13.4 m.

Type: Ship. MMSI: 240198000.

Date/timePositionNaut miles runAvg speedWind from/ knotsBaromVisibWave heightAir tempDewpointWater temp
2018-Jun-22 07:30N 41°18' E 002°12'0 0.1
2018-Jun-22 07:00N 41°18' E 002°12'0 0.0
2018-Jun-22 06:30N 41°18' E 002°12'0 0.1
2018-Jun-22 06:00N 41°18' E 002°12'0 0.0
2018-Jun-22 05:30N 41°18' E 002°12'0 0.1
2018-Jun-22 05:01N 41°18' E 002°12'2 4.9
2018-Jun-22 04:30N 41°16' E 002°14'611.0
2018-Jun-22 04:00N 41°12' E 002°10'612.3
2018-Jun-22 03:31N 41°06' E 002°06'612.1
2018-Jun-22 03:00N 41°00' E 002°03'612.2
2018-Jun-22 02:30N 40°55' E 001°59'612.3
2018-Jun-22 02:00N 40°50' E 001°56'612.0
2018-Jun-22 01:30N 40°44' E 001°52'912.0
2018-Jun-22 00:48N 40°37' E 001°46'412.0
2018-Jun-22 00:29N 40°33' E 001°45'1112.1
2018-Jun-21 23:32N 40°23' E 001°39'012.4
2018-Jun-21 23:30N 40°22' E 001°39'712.5
2018-Jun-21 22:57N 40°16' E 001°35'712.5
2018-Jun-21 22:24N 40°10' E 001°31'712.4
2018-Jun-21 21:48N 40°03' E 001°27'412.3
2018-Jun-21 21:30N 39°60' E 001°25'612.3
2018-Jun-21 21:00N 39°54' E 001°21'1212.5
2018-Jun-21 20:02N 39°43' E 001°14'012.5
2018-Jun-21 20:00N 39°43' E 001°14'612.4
2018-Jun-21 19:30N 39°37' E 001°11'812.2
2018-Jun-21 18:49N 39°30' E 001°06'412.1
2018-Jun-21 18:30N 39°26' E 001°04'612.1
2018-Jun-21 18:01N 39°21' E 001°01'712.1
2018-Jun-21 17:26N 39°15' E 000°57'512.1
2018-Jun-21 17:00N 39°10' E 000°54'612.2
2018-Jun-21 16:29N 39°04' E 000°50'912.2
2018-Jun-21 15:45N 38°56' E 000°45'312.4
2018-Jun-21 15:28N 38°53' E 000°43'712.4
2018-Jun-21 14:55N 38°47' E 000°39'712.3
2018-Jun-21 14:22N 38°41' E 000°36'412.2
2018-Jun-21 14:00N 38°37' E 000°33'1912.2
2018-Jun-21 12:25N 38°19' E 000°25'511.9
2018-Jun-21 11:59N 38°14' E 000°23'612.0
2018-Jun-21 11:30N 38°08' E 000°21'1612.4
2018-Jun-21 10:12N 37°53' E 000°15'1212.4
2018-Jun-21 09:12N 37°41' E 000°10'212.6
2018-Jun-21 09:00N 37°39' E 000°09'712.7
2018-Jun-21 08:27N 37°32' E 000°06'612.2
2018-Jun-21 07:57N 37°27' E 000°01'612.4
2018-Jun-21 07:29N 37°24' W 000°05'612.4
2018-Jun-21 07:00N 37°21' W 000°11'612.4
2018-Jun-21 06:30N 37°18' W 000°18'612.4
2018-Jun-21 06:00N 37°15' W 000°25'612.4
2018-Jun-21 05:30N 37°11' W 000°31'712.4
2018-Jun-21 04:58N 37°08' W 000°38'612.3
2018-Jun-21 04:30N 37°05' W 000°44'912.1
2018-Jun-21 03:47N 37°00' W 000°53'312.2
2018-Jun-21 03:31N 36°58' W 000°57'712.2
2018-Jun-21 02:57N 36°55' W 001°04'612.1
2018-Jun-21 02:25N 36°51' W 001°11'512.5
2018-Jun-21 02:00N 36°49' W 001°17'39312.1
2018-Jun-19 17:37N 36°35' W 009°27'412.5
2018-Jun-19 17:20N 36°38' W 009°30'412.3
2018-Jun-19 17:00N 36°41' W 009°33'612.4
2018-Jun-19 16:30N 36°46' W 009°37'1112.6
2018-Jun-19 15:37N 36°57' W 009°41'512.9
2018-Jun-19 15:16N 37°01' W 009°42'4112.5
2018-Jun-19 11:58N 37°41' W 009°54'712.0
2018-Jun-19 11:22N 37°48' W 009°56'511.9
2018-Jun-19 10:55N 37°54' W 009°57'512.1
2018-Jun-19 10:29N 37°59' W 009°59'612.5
2018-Jun-19 10:00N 38°05' W 010°01'612.3
2018-Jun-19 09:30N 38°11' W 010°03'712.5
2018-Jun-19 08:55N 38°18' W 010°05'612.3
2018-Jun-19 08:26N 38°24' W 010°06'612.3
2018-Jun-19 07:56N 38°29' W 010°08'612.4
2018-Jun-19 07:29N 38°35' W 010°10'613.1
2018-Jun-19 07:00N 38°41' W 010°11'612.6
2018-Jun-19 06:30N 38°47' W 010°12'612.2
2018-Jun-19 06:00N 38°53' W 010°12'611.9
2018-Jun-19 05:30N 38°59' W 010°12'612.0
2018-Jun-19 05:00N 39°05' W 010°12'612.3
2018-Jun-19 04:30N 39°12' W 010°12'712.8
2018-Jun-19 04:00N 39°18' W 010°12'612.9
2018-Jun-19 03:30N 39°24' W 010°12'612.8
2018-Jun-19 03:00N 39°31' W 010°11'612.7
2018-Jun-19 02:30N 39°37' W 010°11'612.6
2018-Jun-19 02:00N 39°43' W 010°12'612.7
2018-Jun-19 01:30N 39°50' W 010°12'612.4
2018-Jun-19 01:00N 39°56' W 010°12'612.7
2018-Jun-19 00:30N 40°02' W 010°11'612.7
2018-Jun-19 00:00N 40°09' W 010°12'712.7
2018-Jun-18 23:29N 40°15' W 010°12'54911.9
2018-Jun-17 01:30N 48°51' W 005°50'3113.0
2018-Jun-16 23:09N 49°08' W 005°11'313.1
2018-Jun-16 22:53N 49°10' W 005°07'512.7
2018-Jun-16 22:29N 49°12' W 004°60'612.3
2018-Jun-16 21:59N 49°15' W 004°52'711.5
2018-Jun-16 21:22N 49°19' W 004°42'410.9
2018-Jun-16 20:59N 49°21' W 004°37'2310.2
2018-Jun-16 18:42N 49°33' W 004°06'210.4
2018-Jun-16 18:30N 49°34' W 004°03'1110.8
2018-Jun-16 17:31N 49°39' W 003°49'111.4
2018-Jun-16 17:27N 49°40' W 003°48'511.8
2018-Jun-16 17:01N 49°42' W 003°41'712.5
2018-Jun-16 16:25N 49°46' W 003°31'613.2
2018-Jun-16 15:58N 49°49' W 003°23'614.0
2018-Jun-16 15:30N 49°53' W 003°15'814.1
2018-Jun-16 14:55N 49°57' W 003°04'614.1
2018-Jun-16 14:30N 49°59' W 002°56'713.9
2018-Jun-16 14:00N 50°01' W 002°45'713.5
2018-Jun-16 13:30N 50°03' W 002°35'47 9.8
2018-Jun-16 08:44N 50°16' W 001°25'3 8.7
2018-Jun-16 08:21N 50°16' W 001°20'5 9.9
2018-Jun-16 07:51N 50°18' W 001°12'410.9
2018-Jun-16 07:27N 50°19' W 001°06'2713.4
2018-Jun-16 05:28N 50°26' W 000°26'714.2
2018-Jun-16 04:57N 50°28' W 000°15'614.1
2018-Jun-16 04:30N 50°30' W 000°05'714.0
2018-Jun-16 04:00N 50°31' E 000°05'713.8
2018-Jun-16 03:30N 50°33' E 000°16'713.6
2018-Jun-16 03:00N 50°34' E 000°27'613.1
2018-Jun-16 02:30N 50°36' E 000°36'612.5
2018-Jun-16 02:01N 50°40' E 000°44'611.8
2018-Jun-16 01:30N 50°43' E 000°52'611.1
2018-Jun-16 01:00N 50°46' E 000°59'510.7
2018-Jun-16 00:30N 50°49' E 001°06'510.6
2018-Jun-16 00:00N 50°52' E 001°13'510.5
2018-Jun-15 23:30N 50°56' E 001°19'611.4
2018-Jun-15 23:00N 51°00' E 001°25'612.9
2018-Jun-15 22:30N 51°05' E 001°32'714.2
2018-Jun-15 22:00N 51°10' E 001°40'714.9
2018-Jun-15 21:30N 51°15' E 001°48'714.7
2018-Jun-15 21:00N 51°22' E 001°54'612.1
2018-Jun-15 20:30N 51°25' E 002°02'612.8
2018-Jun-15 20:00N 51°22' E 002°11'612.7
2018-Jun-15 19:30N 51°21' E 002°21'713.6
2018-Jun-15 19:00N 51°23' E 002°31'612.3
2018-Jun-15 18:30N 51°23' E 002°41'611.5
2018-Jun-15 18:00N 51°25' E 002°50'713.2
2018-Jun-15 17:30N 51°25' E 003°00'713.2
2018-Jun-15 17:00N 51°24' E 003°11'613.3
2018-Jun-15 16:30N 51°24' E 003°21'612.4
2018-Jun-15 16:01N 51°25' E 003°31'4 8.0
2018-Jun-15 15:31N 51°26' E 003°37'4 8.9
2018-Jun-15 15:00N 51°23' E 003°43'510.5
2018-Jun-15 14:30N 51°21' E 003°50'4 8.7
2018-Jun-15 14:00N 51°23' E 003°56'4 8.3
2018-Jun-15 13:30N 51°26' E 004°00'4 8.8
2018-Jun-15 13:00N 51°22' E 004°04'5 9.4
2018-Jun-15 12:31N 51°24' E 004°11'4 8.1
2018-Jun-15 12:00N 51°21' E 004°16'1 2.2
2018-Jun-15 11:31N 51°21' E 004°17'0 0.0
2018-Jun-15 11:00N 51°21' E 004°17'0 0.0
2018-Jun-15 10:31N 51°21' E 004°17'0 0.0
2018-Jun-15 10:00N 51°21' E 004°17'1 1.0
2018-Jun-15 09:30N 51°20' E 004°18'3 5.6
2018-Jun-15 09:00N 51°18' E 004°20'1 2.7
2018-Jun-15 08:30N 51°17' E 004°21'1 1.0
2018-Jun-15 08:01N 51°16' E 004°21'0 0.0
2018-Jun-15 07:28N 51°16' E 004°21'0 0.0
2018-Jun-15 07:01N 51°16' E 004°21'0 0.0
2018-Jun-15 06:25N 51°16' E 004°21'0 0.0
2018-Jun-15 05:58N 51°16' E 004°21'0 0.0
2018-Jun-15 05:31N 51°16' E 004°21'0 0.0
2018-Jun-15 05:01N 51°16' E 004°21'0 0.0
2018-Jun-15 04:25N 51°16' E 004°21'0 0.0
2018-Jun-15 04:01N 51°16' E 004°21'0 0.0
2018-Jun-15 03:28N 51°16' E 004°21'0 0.0
2018-Jun-15 02:58N 51°16' E 004°21'0 0.0
2018-Jun-15 02:28N 51°16' E 004°21'0 0.0
2018-Jun-15 02:01N 51°16' E 004°21'0 0.0
2018-Jun-15 01:31N 51°16' E 004°21'0 0.0
2018-Jun-15 00:58N 51°16' E 004°21'0 0.0
2018-Jun-15 00:28N 51°16' E 004°21'0 0.0
2018-Jun-14 23:58N 51°16' E 004°21'0 0.0
2018-Jun-14 23:31N 51°16' E 004°21'0 0.0
2018-Jun-14 22:55N 51°16' E 004°21'0 0.0
2018-Jun-14 22:28N 51°16' E 004°21'0 0.0
2018-Jun-14 21:58N 51°16' E 004°21'0 0.0
2018-Jun-14 21:28N 51°16' E 004°21'0 0.0
2018-Jun-14 20:58N 51°16' E 004°21'0 0.0
2018-Jun-14 20:28N 51°16' E 004°21'0 0.0
2018-Jun-14 19:58N 51°16' E 004°21'0 0.0
2018-Jun-14 19:31N 51°16' E 004°21'0 0.0
2018-Jun-14 19:01N 51°16' E 004°21'0 0.0
2018-Jun-14 18:28N 51°16' E 004°21'0 0.0
2018-Jun-14 18:01N 51°16' E 004°21'0 0.0
2018-Jun-14 17:31N 51°16' E 004°21'0 0.0
2018-Jun-14 16:58N 51°16' E 004°21'0 0.0
2018-Jun-14 16:28N 51°16' E 004°21'0 0.0
2018-Jun-14 16:01N 51°16' E 004°21'0 0.0
2018-Jun-14 15:31N 51°16' E 004°21'0 0.0
2018-Jun-14 15:01N 51°16' E 004°21'0 0.0
2018-Jun-14 14:31N 51°16' E 004°21'0 0.0
2018-Jun-14 13:58N 51°16' E 004°21'0 0.0
2018-Jun-14 13:28N 51°16' E 004°21'0 0.0
2018-Jun-14 12:58N 51°16' E 004°21'0 0.0
2018-Jun-14 12:28N 51°16' E 004°21'0 0.0
2018-Jun-14 12:01N 51°16' E 004°21'0 0.0
2018-Jun-14 11:28N 51°16' E 004°21'0 0.0
2018-Jun-14 11:01N 51°16' E 004°21'0 0.0
2018-Jun-14 10:31N 51°16' E 004°21'0 0.0
2018-Jun-14 09:58N 51°16' E 004°21'0 0.0
2018-Jun-14 09:25N 51°16' E 004°21'0 0.0
2018-Jun-14 08:58N 51°16' E 004°21'0 0.0
2018-Jun-14 08:31N 51°16' E 004°21'0 0.0
2018-Jun-14 07:58N 51°16' E 004°21'0 0.0
2018-Jun-14 07:28N 51°16' E 004°21'0 0.0
2018-Jun-14 06:58N 51°16' E 004°21'0 0.0
2018-Jun-14 06:31N 51°16' E 004°21'0 0.0
2018-Jun-14 05:58N 51°16' E 004°21'0 0.0
2018-Jun-14 05:28N 51°16' E 004°21'0 0.0
2018-Jun-14 05:01N 51°16' E 004°21'0 0.0
2018-Jun-14 04:31N 51°16' E 004°21'0 0.0
2018-Jun-14 03:58N 51°16' E 004°21'0 0.0
2018-Jun-14 03:31N 51°16' E 004°21'0 0.0
2018-Jun-14 03:01N 51°16' E 004°21'0 0.0
2018-Jun-14 02:28N 51°16' E 004°21'0 0.0
2018-Jun-14 01:58N 51°16' E 004°21'0 0.0
2018-Jun-14 01:28N 51°16' E 004°21'0 0.0
2018-Jun-14 01:01N 51°16' E 004°21'0 0.0
2018-Jun-14 00:28N 51°16' E 004°21'0 0.0
2018-Jun-13 23:58N 51°16' E 004°21'0 0.0
2018-Jun-13 23:31N 51°16' E 004°21'0 0.0
2018-Jun-13 22:58N 51°16' E 004°21'0 0.0
2018-Jun-13 22:28N 51°16' E 004°21'0 0.0
2018-Jun-13 21:58N 51°16' E 004°21'0 0.0
2018-Jun-13 21:28N 51°16' E 004°21'0 0.0
2018-Jun-13 21:01N 51°16' E 004°21'0 0.0
2018-Jun-13 20:28N 51°16' E 004°21'0 0.0
2018-Jun-13 19:58N 51°16' E 004°21'0 0.0
2018-Jun-13 19:28N 51°16' E 004°21'0 0.0
2018-Jun-13 18:58N 51°16' E 004°21'0 0.0
2018-Jun-13 18:25N 51°16' E 004°21'0 0.0
2018-Jun-13 17:58N 51°16' E 004°21'0 0.0
2018-Jun-13 17:28N 51°16' E 004°21'0 0.0
2018-Jun-13 16:58N 51°16' E 004°21'0 0.0
2018-Jun-13 16:25N 51°16' E 004°21'0 0.0
2018-Jun-13 16:01N 51°16' E 004°21'0 0.0
2018-Jun-13 15:28N 51°16' E 004°21'0 0.0
2018-Jun-13 14:58N 51°16' E 004°21'0 0.0
2018-Jun-13 14:31N 51°16' E 004°21'0 0.0
2018-Jun-13 13:58N 51°16' E 004°21'0 0.0
2018-Jun-13 13:28N 51°16' E 004°21'0 0.0
2018-Jun-13 13:01N 51°16' E 004°21'0 0.0
2018-Jun-13 12:31N 51°16' E 004°21'0 0.0
2018-Jun-13 12:01N 51°16' E 004°21'0 0.0
2018-Jun-13 11:31N 51°16' E 004°21'0 0.0
2018-Jun-13 10:58N 51°16' E 004°21'0 0.0
2018-Jun-13 10:31N 51°16' E 004°21'0 0.0
2018-Jun-13 09:58N 51°16' E 004°21'0 0.0
2018-Jun-13 09:31N 51°16' E 004°21'0 0.0
2018-Jun-13 08:58N 51°16' E 004°21'0 0.0
2018-Jun-13 08:28N 51°16' E 004°21'0 0.0
2018-Jun-13 07:58N 51°16' E 004°21'0 0.0
2018-Jun-13 07:28N 51°16' E 004°21'0 0.0
2018-Jun-13 07:01N 51°16' E 004°21'0 0.0
2018-Jun-13 06:28N 51°16' E 004°21'0 0.0
2018-Jun-13 06:01N 51°16' E 004°21'0 0.0
2018-Jun-13 05:28N 51°16' E 004°21'0 0.0
2018-Jun-13 04:58N 51°16' E 004°21'0 0.0
2018-Jun-13 04:31N 51°16' E 004°21'0 0.0
2018-Jun-13 03:58N 51°16' E 004°21'0 0.0
2018-Jun-13 03:28N 51°16' E 004°21'0 0.0
2018-Jun-13 03:01N 51°16' E 004°21'0 0.0
2018-Jun-13 02:28N 51°16' E 004°21'0 0.0
2018-Jun-13 01:58N 51°16' E 004°21'0 0.0
2018-Jun-13 01:28N 51°16' E 004°21'0 0.0
2018-Jun-13 00:58N 51°16' E 004°21'0 0.0
2018-Jun-13 00:28N 51°16' E 004°21'0 0.0
2018-Jun-12 23:55N 51°16' E 004°21'0 0.0
2018-Jun-12 23:31N 51°16' E 004°21'0 0.0
2018-Jun-12 22:58N 51°16' E 004°21'0 0.0
2018-Jun-12 22:31N 51°16' E 004°21'0 0.0
2018-Jun-12 22:01N 51°16' E 004°21'0 0.0
2018-Jun-12 21:31N 51°16' E 004°21'0 0.0
2018-Jun-12 20:58N 51°16' E 004°21'0 0.0
2018-Jun-12 20:31N 51°16' E 004°21'0 0.0
2018-Jun-12 20:01N 51°16' E 004°21'0 0.0
2018-Jun-12 19:31N 51°16' E 004°21'0 0.0
2018-Jun-12 18:58N 51°16' E 004°21'0 0.0
2018-Jun-12 18:28N 51°16' E 004°21'0 0.0
2018-Jun-12 18:01N 51°16' E 004°21'0 0.0
2018-Jun-12 17:28N 51°16' E 004°21'0 0.0
2018-Jun-12 17:01N 51°16' E 004°21'0 0.0
2018-Jun-12 16:28N 51°16' E 004°21'0 0.0
2018-Jun-12 15:58N 51°16' E 004°21'0 0.0
2018-Jun-12 15:28N 51°16' E 004°21'0 0.0
2018-Jun-12 14:58N 51°16' E 004°21'0 0.0
2018-Jun-12 14:28N 51°16' E 004°21'0 0.0
2018-Jun-12 13:58N 51°16' E 004°21'0 0.0
2018-Jun-12 13:28N 51°16' E 004°21'0 0.0
2018-Jun-12 12:55N 51°16' E 004°21'0 0.0
2018-Jun-12 12:31N 51°16' E 004°21'0 0.0
2018-Jun-12 11:58N 51°16' E 004°21'0 0.0
2018-Jun-12 11:31N 51°16' E 004°21'0 0.0
2018-Jun-12 10:58N 51°16' E 004°21'0 0.0
2018-Jun-12 10:31N 51°16' E 004°21'0 0.0
2018-Jun-12 09:58N 51°16' E 004°21'0 0.0
2018-Jun-12 09:31N 51°16' E 004°21'0 0.0
2018-Jun-12 08:58N 51°16' E 004°21'0 0.0
2018-Jun-12 08:31N 51°16' E 004°21'0 0.0
2018-Jun-12 07:58N 51°16' E 004°21'0 0.0
2018-Jun-12 07:31N 51°16' E 004°21'  

Dump ship's entire track history